• Join FlightAware (Why Join?)
  • Login
  • US Flag 
11:52AM EDT


 

Airport Tracker/Info


-or-


 

Live Flight TrackerFlight Track Log ✈ JBU1203 ✈ 19-Aug-2013 ✈ KJFK - TJSJ / SJU

Flight Track Log - Related Links

Times and Time Zones

All times are in EDT time to prevent confusion due to time zone crossing. See the JBU1203 flight status page for this flight to view local times or setup timezone preferences in your user account.

Time Position Orientation Groundspeed Altitude Reporting Facility
EDT Latitude Longitude Course Direction KTS MPH feet Rate Location/Type
11:10PM 40.5831 -73.8833 125° Southeast 237 273 4,700  Level New York Center
11:11PM 40.5411 -73.8161 129° Southeast 198 228 8,200 3,060 Climbing New York Center
11:12PM 40.3669 -73.3086 131° Southeast  Level FlightAware Approximate
11:12PM 40.5022 -73.7133 116° Southeast 242 278 10,900  Level New York Center
11:13PM 40.2888 -73.1867 128° Southeast  Level FlightAware Approximate
11:13PM 40.4553 -73.5858 116° Southeast 321 369 13,700  Level New York Center
11:14PM 40.2140 -73.0615 128° Southeast  Level FlightAware Approximate
11:14PM 40.4119 -73.4722 117° Southeast 373 429 16,100  Level New York Center
11:15PM 40.1390 -72.9366 128° Southeast  Level FlightAware Approximate
11:15PM 40.3464 -73.3364 122° Southeast 396 456 18,500  Level New York Center
11:16PM 40.0640 -72.8118 125° Southeast  Level FlightAware Approximate
11:16PM 40.2608 -73.2381 139° Southeast 402 463 20,500  Level New York Center
11:17PM 40.1714 -73.1289 137° Southeast 421 484 22,500 1,920 Climbing New York Center
11:18PM 40.0778 -73.0169 138° Southeast 444 511 24,400 1,860 Climbing New York Center
11:19PM 39.9861 -72.9058 137° Southeast 449 517 26,300 1,620 Climbing New York Center
11:20PM 39.8903 -72.7892 137° Southeast 456 525 27,700 1,380 Climbing New York Center
11:21PM 39.7900 -72.6728 138° Southeast 467 537 29,100 1,260 Climbing New York Center
11:22PM 39.6900 -72.5486 136° Southeast 482 555 30,300 1,380 Climbing New York Center
11:23PM 39.5875 -72.4275 138° Southeast 496 571 31,900 1,440 Climbing New York Center
11:24PM 39.4850 -72.3014 136° Southeast 502 578 33,200 1,500 Climbing New York Center
11:25PM 39.3822 -72.1836 138° Southeast 502 578 34,900 1,560 Climbing New York Center
11:26PM 39.2817 -72.0661 138° Southeast 502 578 36,400 1,260 Climbing New York Center
11:27PM 39.1847 -71.9492 137° Southeast 497 572 37,500 960 Climbing New York Center
11:28PM 39.0858 -71.8297 137° Southeast 487 560 38,400 660 Climbing New York Center
11:29PM 38.9869 -71.7214 140° Southeast 482 555 38,900 300 Climbing New York Center
11:30PM 38.8897 -71.6000 136° Southeast 482 555 39,000  Climbing New York Center
11:31PM 38.7842 -71.4922 141° Southeast 482 555 39,000 -60 Level New York Center
11:32PM 38.6869 -71.3714 136° Southeast 482 555 38,900 -60 Descending New York Center
11:33PM 38.5872 -71.2642 140° Southeast 482 555 38,900  Level New York Center
11:34PM 38.4897 -71.1494 137° Southeast 482 555 38,900  Level New York Center
11:35PM 38.3922 -71.0350 137° Southeast 477 549 39,000  Climbing New York Center
11:36PM 38.2964 -70.9181 136° Southeast 477 549 39,000 -60 Level New York Center
11:37PM 38.1922 -70.8147 142° Southeast 477 549 38,900  Descending New York Center
11:38PM 38.0861 -70.7250 146° Southeast 472 543 39,000  Climbing New York Center
11:39PM 37.9836 -70.6194 141° Southeast 472 543 39,000  Level New York Center
11:40PM 37.8711 -70.5356 150° Southeast 472 543 39,000  Level New York Center
11:41PM 37.7561 -70.4675 155° Southeast 472 543 39,000  Level New York Center
11:43PM 37.6386 -70.3665 146° Southeast  Level FlightAware Approximate
11:50PM 36.9023 -69.9043 155° Southeast  Level FlightAware Approximate
11:51PM 36.7957 -69.8400 154° Southeast  Level FlightAware Approximate
11:52PM 36.6892 -69.7752 154° Southeast  Level FlightAware Approximate
11:53PM 36.5828 -69.7106 154° Southeast  Level FlightAware Approximate
11:54PM 36.4763 -69.6462 154° Southeast  Level FlightAware Approximate
11:55PM 36.3697 -69.5819 154° Southeast  Level FlightAware Approximate
11:56PM 36.2631 -69.5178 154° Southeast  Level FlightAware Approximate
11:57PM 36.1565 -69.4539 154° Southeast  Level FlightAware Approximate
11:58PM 36.0415 -69.4202 167° South  Level FlightAware Approximate
11:58PM 36.1667 -69.4500 168° South 448 516 39,000  Level New York Oceanic (ODAPS)
11:59PM 35.9259 -69.3885 167° South  Level FlightAware Approximate
12:00AM 35.8102 -69.3569 168° South  Level FlightAware Approximate
12:01AM 35.6946 -69.3253 168° South  Level FlightAware Approximate
12:02AM 35.5790 -69.2939 168° South  Level FlightAware Approximate
12:03AM 35.4633 -69.2626 168° South  Level FlightAware Approximate
12:04AM 35.1899 -69.1891 168° South 448 516 39,000  Level FlightAware Transoceanic
12:05AM 35.0677 -69.1569 168° South 448 516 39,000  Level FlightAware Transoceanic
12:06AM 34.9456 -69.1248 168° South 448 516 39,000  Level FlightAware Transoceanic
12:07AM 34.8235 -69.0928 168° South 448 516 39,000  Level FlightAware Transoceanic
12:08AM 34.7013 -69.0609 168° South 448 516 39,000  Level FlightAware Transoceanic
12:09AM 34.5791 -69.0291 168° South 448 516 39,000  Level FlightAware Transoceanic
12:10AM 34.4570 -68.9974 168° South 448 516 39,000  Level FlightAware Transoceanic
12:11AM 34.3348 -68.9658 168° South 448 516 39,000  Level FlightAware Transoceanic
12:12AM 34.2126 -68.9343 168° South 448 516 39,000  Level FlightAware Transoceanic
12:13AM 34.0904 -68.9029 168° South 448 516 39,000  Level FlightAware Transoceanic
12:14AM 33.9682 -68.8716 168° South 448 516 39,000  Level FlightAware Transoceanic
12:15AM 33.8459 -68.8403 168° South 448 516 39,000  Level FlightAware Transoceanic
12:16AM 33.7237 -68.8092 168° South 448 516 39,000  Level FlightAware Transoceanic
12:17AM 33.6015 -68.7781 168° South 448 516 39,000  Level FlightAware Transoceanic
12:18AM 33.4792 -68.7471 168° South 448 516 39,000  Level FlightAware Transoceanic
12:19AM 33.3570 -68.7162 168° South 448 516 39,000  Level FlightAware Transoceanic
12:20AM 33.2347 -68.6854 168° South 448 516 39,000  Level FlightAware Transoceanic
12:21AM 33.1125 -68.6547 168° South 448 516 39,000  Level FlightAware Transoceanic
12:22AM 32.9902 -68.6241 168° South 448 516 39,000  Level FlightAware Transoceanic
12:23AM 32.8679 -68.5935 168° South 448 516 39,000  Level FlightAware Transoceanic
12:24AM 32.7456 -68.5631 168° South 448 516 39,000  Level FlightAware Transoceanic
12:25AM 32.6233 -68.5327 168° South 448 516 39,000  Level FlightAware Transoceanic
12:26AM 32.5010 -68.5024 168° South 448 516 39,000  Level FlightAware Transoceanic
12:27AM 32.3787 -68.4722 168° South 448 516 39,000  Level FlightAware Transoceanic
12:28AM 32.2564 -68.4420 168° South 448 516 39,000  Level FlightAware Transoceanic
12:29AM 32.1341 -68.4120 168° South 448 516 39,000  Level FlightAware Transoceanic
12:30AM 32.0117 -68.3820 168° South 448 516 39,000  Level FlightAware Transoceanic
12:31AM 31.8894 -68.3521 168° South 448 516 39,000  Level FlightAware Transoceanic
12:32AM 31.7671 -68.3223 168° South 448 516 39,000  Level FlightAware Transoceanic
12:33AM 31.6447 -68.2926 168° South 448 516 39,000  Level FlightAware Transoceanic
12:34AM 31.5224 -68.2629 168° South 448 516 39,000  Level FlightAware Transoceanic
12:35AM 31.4000 -68.2333 168° South 448 516 39,000  Level FlightAware Transoceanic
12:36AM 31.2790 -68.2042 168° South 448 516 39,000  Level FlightAware Transoceanic
12:37AM 31.1580 -68.1752 168° South 448 516 39,000  Level FlightAware Transoceanic
12:37AM 31.4000 -68.2333 168° South 426 490 39,000  Level New York Oceanic (ODAPS)
12:38AM 31.0370 -68.1462 168° South 448 516 39,000  Level FlightAware Transoceanic
12:39AM 30.9160 -68.1174 168° South 448 516 39,000  Level FlightAware Transoceanic
12:40AM 30.7949 -68.0886 168° South 448 516 39,000  Level FlightAware Transoceanic
12:41AM 30.6739 -68.0598 168° South 448 516 39,000  Level FlightAware Transoceanic
12:42AM 30.5529 -68.0312 168° South 448 516 39,000  Level FlightAware Transoceanic
12:43AM 30.4455 -68.0058 169° South 426 490 39,000  Level FlightAware Transoceanic
12:44AM 30.3261 -67.9777 169° South 426 490 39,000  Level FlightAware Transoceanic
12:45AM 30.2068 -67.9496 169° South 426 490 39,000  Level FlightAware Transoceanic
12:46AM 30.0874 -67.9216 169° South 426 490 39,000  Level FlightAware Transoceanic
12:47AM 29.9681 -67.8937 169° South 426 490 39,000  Level FlightAware Transoceanic
12:48AM 29.8487 -67.8659 169° South 426 490 39,000  Level FlightAware Transoceanic
12:49AM 29.7293 -67.8381 169° South 426 490 39,000  Level FlightAware Transoceanic
12:50AM 29.6099 -67.8103 169° South 426 490 39,000  Level FlightAware Transoceanic
12:51AM 29.4906 -67.7827 169° South 426 490 39,000  Level FlightAware Transoceanic
12:52AM 29.3712 -67.7551 169° South 426 490 39,000  Level FlightAware Transoceanic
12:53AM 29.2518 -67.7276 169° South 426 490 39,000  Level FlightAware Transoceanic
12:54AM 29.1324 -67.7001 169° South 426 490 39,000  Level FlightAware Transoceanic
12:55AM 29.0130 -67.6727 169° South 426 490 39,000  Level FlightAware Transoceanic
12:56AM 28.8936 -67.6454 169° South 426 490 39,000  Level FlightAware Transoceanic
12:57AM 28.7741 -67.6181 169° South 426 490 39,000  Level FlightAware Transoceanic
12:58AM 28.6547 -67.5909 169° South 426 490 39,000  Level FlightAware Transoceanic
12:59AM 28.5353 -67.5637 169° South 426 490 39,000  Level FlightAware Transoceanic
01:00AM 28.4158 -67.5367 169° South 426 490 39,000  Level FlightAware Transoceanic
01:01AM 28.2964 -67.5096 169° South 426 490 39,000  Level FlightAware Transoceanic
01:02AM 28.1770 -67.4827 169° South 426 490 39,000  Level FlightAware Transoceanic
01:03AM 28.0575 -67.4557 169° South 426 490 39,000  Level FlightAware Transoceanic
01:04AM 27.9381 -67.4289 169° South 426 490 39,000  Level FlightAware Transoceanic
01:05AM 27.8186 -67.4021 169° South 426 490 39,000  Level FlightAware Transoceanic
01:06AM 27.6991 -67.3754 169° South 426 490 39,000  Level FlightAware Transoceanic
01:07AM 27.5797 -67.3487 169° South 426 490 39,000  Level FlightAware Transoceanic
01:08AM 27.4602 -67.3221 169° South 426 490 39,000  Level FlightAware Transoceanic
01:09AM 27.3407 -67.2956 169° South 426 490 39,000  Level FlightAware Transoceanic
01:10AM 27.2212 -67.2691 169° South 426 490 39,000  Level FlightAware Transoceanic
01:11AM 27.1017 -67.2426 169° South 426 490 39,000  Level FlightAware Transoceanic
01:12AM 26.9822 -67.2162 169° South 426 490 39,000  Level FlightAware Transoceanic
01:13AM 26.8627 -67.1899 169° South 426 490 39,000  Level FlightAware Transoceanic
01:14AM 26.7432 -67.1636 169° South 426 490 39,000  Level FlightAware Transoceanic
01:15AM 26.6237 -67.1374 169° South 426 490 39,000  Level FlightAware Transoceanic
01:16AM 26.5042 -67.1113 169° South 426 490 39,000  Level FlightAware Transoceanic
01:17AM 26.3847 -67.0852 169° South 426 490 39,000  Level FlightAware Transoceanic
01:17AM 27.0833 -67.2500 169° South 434 499 39,000  Level New York Oceanic (ODAPS)
01:18AM 26.2652 -67.0591 169° South 426 490 39,000  Level FlightAware Transoceanic
01:19AM 26.1456 -67.0331 169° South 426 490 39,000  Level FlightAware Transoceanic
01:20AM 26.0261 -67.0072 169° South 426 490 39,000  Level FlightAware Transoceanic
01:21AM 25.9065 -66.9813 169° South 426 490 39,000  Level FlightAware Transoceanic
01:22AM 25.7870 -66.9554 169° South 426 490 39,000  Level FlightAware Transoceanic
01:23AM 25.7744 -66.9605 169° South 434 499 39,000  Level FlightAware Transoceanic
01:24AM 25.6554 -66.9345 169° South 434 499 39,000  Level FlightAware Transoceanic
01:25AM 25.5364 -66.9085 169° South 434 499 39,000  Level FlightAware Transoceanic
01:26AM 25.4173 -66.8826 169° South 434 499 39,000  Level FlightAware Transoceanic
01:27AM 25.2983 -66.8568 169° South 434 499 39,000  Level FlightAware Transoceanic
01:28AM 25.1793 -66.8310 169° South 434 499 39,000  Level FlightAware Transoceanic
01:29AM 25.0602 -66.8052 169° South 434 499 39,000  Level FlightAware Transoceanic
01:30AM 24.9412 -66.7795 169° South 434 499 39,000  Level FlightAware Transoceanic
01:31AM 24.8221 -66.7539 169° South 434 499 39,000  Level FlightAware Transoceanic
01:32AM 24.7030 -66.7283 169° South 434 499 39,000  Level FlightAware Transoceanic
01:33AM 24.5840 -66.7027 169° South 434 499 39,000  Level FlightAware Transoceanic
01:34AM 24.4649 -66.6772 169° South 434 499 39,000  Level FlightAware Transoceanic
01:35AM 24.3458 -66.6518 169° South 434 499 39,000  Level FlightAware Transoceanic
01:36AM 24.2268 -66.6264 169° South 434 499 39,000  Level FlightAware Transoceanic
01:37AM 24.1077 -66.6010 169° South 434 499 39,000  Level FlightAware Transoceanic
01:38AM 23.9886 -66.5757 169° South 434 499 39,000  Level FlightAware Transoceanic
01:39AM 23.8695 -66.5505 169° South 434 499 39,000  Level FlightAware Transoceanic
01:40AM 23.7504 -66.5252 169° South 434 499 39,000  Level FlightAware Transoceanic
01:41AM 23.6313 -66.5001 169° South 434 499 39,000  Level FlightAware Transoceanic
01:42AM 23.5122 -66.4749 169° South 434 499 39,000  Level FlightAware Transoceanic
01:43AM 23.3931 -66.4499 169° South 434 499 39,000  Level FlightAware Transoceanic
01:44AM 23.2740 -66.4248 169° South 434 499 39,000  Level FlightAware Transoceanic
01:45AM 23.1549 -66.3998 169° South 434 499 39,000  Level FlightAware Transoceanic
01:46AM 23.0358 -66.3749 169° South 434 499 39,000  Level FlightAware Transoceanic
01:47AM 22.9167 -66.3500 169° South 434 499 39,000  Level FlightAware Transoceanic
01:48AM 22.7905 -66.3237 169° South 434 499 39,000  Level FlightAware Transoceanic
01:48AM 22.9167 -66.3500 169° South 543 625 39,000  Level New York Oceanic (ODAPS)
01:49AM 22.6643 -66.2974 169° South 434 499 39,000  Level FlightAware Transoceanic
01:49AM 22.5000 -66.3000 169° South 430 495 39,000  Level San Juan Center
01:50AM 22.5381 -66.2711 169° South 434 499 39,000  Level FlightAware Transoceanic
01:50AM 22.3667 -66.2667 167° South 410 472 39,000  Level San Juan Center
01:51AM 22.4119 -66.2449 169° South 434 499 39,000  Level FlightAware Transoceanic
01:51AM 22.2333 -66.2333 167° South 470 541 39,000  Level San Juan Center
01:52AM 22.2857 -66.2188 169° South 434 499 39,000  Level FlightAware Transoceanic
01:52AM 22.1167 -66.2167 172° South 440 506 39,000  Level San Juan Center
01:53AM 22.1595 -66.1927 169° South 434 499 39,000  Level FlightAware Transoceanic
01:53AM 21.9833 -66.1667 161° South 470 541 39,000  Level San Juan Center
01:54AM 21.9200 -66.1433 169° South 543 625 39,000  Level FlightAware Transoceanic
01:54AM 21.8667 -66.1500 172° South 460 529 39,000  Level San Juan Center
01:55AM 21.7333 -66.1167 167° South 450 518 39,000  Level San Juan Center
01:56AM 21.6167 -66.1000 172° South 460 529 39,000  Level San Juan Center
01:57AM 21.4833 -66.1167 187° South 450 518 39,000  Level San Juan Center
01:58AM 21.3500 -66.1167 180° South 460 529 39,000  Level San Juan Center
01:59AM 21.2333 -66.1333 188° South 450 518 39,000  Level San Juan Center
02:00AM 21.1000 -66.1333 180° South 450 518 39,000 -600 Level San Juan Center
02:01AM 20.9667 -66.1333 180° South 430 495 37,900 -2,220 Descending San Juan Center
02:02AM 20.8333 -66.1333 180° South 460 529 34,600 -3,180 Descending San Juan Center
02:03AM 20.7000 -66.1333 180° South 460 529 31,500 -3,000 Descending San Juan Center
02:04AM 20.5833 -66.1333 180° South 460 529 28,600 -2,460 Descending San Juan Center
02:05AM 20.4500 -66.1500 187° South 450 518 26,600 -1,560 Descending San Juan Center
02:06AM 20.3167 -66.1500 180° South 440 506 25,500 -1,080 Descending San Juan Center
02:07AM 20.2000 -66.1500 180° South 440 506 24,500 -960 Descending San Juan Center
02:08AM 20.0833 -66.1500 180° South 420 483 23,600 -960 Descending San Juan Center
02:09AM 19.9667 -66.1500 180° South 420 483 22,600 -960 Descending San Juan Center
02:10AM 19.8500 -66.1500 180° South 410 472 21,700 -1,020 Descending San Juan Center
02:11AM 19.7333 -66.1667 188° South 420 483 20,600 -1,080 Descending San Juan Center
02:12AM 19.6167 -66.1667 180° South 400 460 19,600 -1,200 Descending San Juan Center
02:13AM 19.5000 -66.1667 180° South 390 449 18,200 -1,500 Descending San Juan Center
02:14AM 19.4000 -66.1667 180° South 380 437 16,700 -1,680 Descending San Juan Center
02:15AM 19.3000 -66.1667 180° South 360 414 14,900 -1,980 Descending San Juan Center
02:16AM 19.2167 -66.2167 210° Southwest 350 403 12,800 -1,740 Descending San Juan Center
02:17AM 19.1333 -66.2667 210° Southwest 340 391 11,500 -1,380 Descending San Juan Center
02:18AM 19.0500 -66.3167 210° Southwest 310 357 10,100 -1,560 Descending San Juan Center
02:19AM 19.0000 -66.3833 232° Southwest 300 345 8,400 -1,680 Descending San Juan Center
02:20AM 18.9500 -66.4500 232° Southwest 290 334 6,800 -1,500 Descending San Juan Center
02:21AM 18.9167 -66.5333 247° West 300 345 5,400 -1,200 Descending San Juan Center
02:22AM 18.8833 -66.6167 247° West 300 345 4,400 -1,020 Descending San Juan Center
02:23AM 18.8500 -66.6833 242° Southwest 280 322 3,400 -720 Descending San Juan Center
02:24AM 18.8000 -66.7500 232° Southwest 280 322 3,000 -240 Descending San Juan Center
02:25AM 18.7167 -66.7667 191° South 280 322 3,000  Level San Juan Center
02:26AM 18.6500 -66.7667 180° South 250 288 3,000  Level San Juan Center
02:27AM 18.5833 -66.7667 180° South 260 299 3,000  Level San Juan Center
02:28AM 18.5167 -66.7167 145° Southeast 250 288 3,000  Level San Juan Center
02:29AM 18.4833 -66.6500 118° Southeast 250 288 3,000  Level San Juan Center
02:30AM 18.4667 -66.5833 105° East 250 288 3,000  Level San Juan Center
02:31AM 18.4500 -66.5167 105° East 250 288 3,000  Level San Juan Center
02:32AM 18.4333 -66.4500 105° East 250 288 3,000  Level San Juan Center
02:33AM 18.4167 -66.3833 105° East 240 276 3,000  Level San Juan Center
02:34AM 18.3833 -66.3167 118° Southeast 230 265 3,000 -120 Level San Juan Center
02:35AM 18.3833 -66.2500 90° East 200 230 2,800 -300 Descending San Juan Center
02:36AM 18.3667 -66.2000 109° East 180 207 2,500 -180 Descending San Juan Center
02:37AM 18.3667 -66.1500 90° East 160 184 2,500 -300 Level San Juan Center
02:39AM 18.3833 -66.1000 71° East 170 196 2,000 -600 Descending San Juan Center
02:40AM 18.4000 -66.0667 62° Northeast 120 138 1,300 -660 Descending San Juan Center
02:41AM 18.4167 -66.0333 62° Northeast 100 115 700 -600 Descending San Juan Center